sensor_id;sensor_type;location;lat;lon;timestamp;temperature;humidity
3752;DHT22;50827;47.014;7.652;2023-12-29T00:00:21;6.50;99.90
3752;DHT22;50827;47.014;7.652;2023-12-29T00:02:48;6.50;99.90
3752;DHT22;50827;47.014;7.652;2023-12-29T00:05:15;6.60;99.90
3752;DHT22;50827;47.014;7.652;2023-12-29T00:07:42;6.50;99.90
3752;DHT22;50827;47.014;7.652;2023-12-29T00:10:09;6.50;99.90
3752;DHT22;50827;47.014;7.652;2023-12-29T00:12:36;6.50;99.90
3752;DHT22;50827;47.014;7.652;2023-12-29T00:15:03;6.60;99.90
3752;DHT22;50827;47.014;7.652;2023-12-29T00:17:30;6.50;99.90
3752;DHT22;50827;47.014;7.652;2023-12-29T00:19:58;6.50;99.90
3752;DHT22;50827;47.014;7.652;2023-12-29T00:22:26;6.50;99.90
3752;DHT22;50827;47.014;7.652;2023-12-29T00:24:54;6.50;99.90
3752;DHT22;50827;47.014;7.652;2023-12-29T00:27:21;6.50;99.90
3752;DHT22;50827;47.014;7.652;2023-12-29T00:29:47;6.50;99.90
3752;DHT22;50827;47.014;7.652;2023-12-29T00:32:17;6.50;99.90
3752;DHT22;50827;47.014;7.652;2023-12-29T00:34:44;6.50;99.90
3752;DHT22;50827;47.014;7.652;2023-12-29T00:37:11;6.60;99.90
3752;DHT22;50827;47.014;7.652;2023-12-29T00:39:40;6.40;99.90
3752;DHT22;50827;47.014;7.652;2023-12-29T00:42:07;6.40;99.90
3752;DHT22;50827;47.014;7.652;2023-12-29T00:44:34;6.40;99.90
3752;DHT22;50827;47.014;7.652;2023-12-29T00:47:02;6.40;99.90
3752;DHT22;50827;47.014;7.652;2023-12-29T00:49:28;6.40;99.90
3752;DHT22;50827;47.014;7.652;2023-12-29T00:51:55;6.50;99.90
3752;DHT22;50827;47.014;7.652;2023-12-29T00:54:22;6.40;99.90
3752;DHT22;50827;47.014;7.652;2023-12-29T00:56:52;6.40;99.90
3752;DHT22;50827;47.014;7.652;2023-12-29T00:59:19;6.40;99.90
3752;DHT22;50827;47.014;7.652;2023-12-29T01:01:48;6.40;99.90
3752;DHT22;50827;47.014;7.652;2023-12-29T01:04:16;6.40;99.90
3752;DHT22;50827;47.014;7.652;2023-12-29T01:06:43;6.40;99.90
3752;DHT22;50827;47.014;7.652;2023-12-29T01:09:10;6.40;99.90
3752;DHT22;50827;47.014;7.652;2023-12-29T01:11:37;6.40;99.90
3752;DHT22;50827;47.014;7.652;2023-12-29T01:14:04;6.40;99.90
3752;DHT22;50827;47.014;7.652;2023-12-29T01:16:32;6.40;99.90
3752;DHT22;50827;47.014;7.652;2023-12-29T01:18:59;6.40;99.90
3752;DHT22;50827;47.014;7.652;2023-12-29T01:21:26;6.40;99.90
3752;DHT22;50827;47.014;7.652;2023-12-29T01:23:53;6.30;99.90
3752;DHT22;50827;47.014;7.652;2023-12-29T01:26:19;6.30;99.90
3752;DHT22;50827;47.014;7.652;2023-12-29T01:28:46;6.30;99.90
3752;DHT22;50827;47.014;7.652;2023-12-29T01:31:13;6.30;99.90
3752;DHT22;50827;47.014;7.652;2023-12-29T01:33:40;6.30;99.90
3752;DHT22;50827;47.014;7.652;2023-12-29T01:36:07;6.30;99.90
3752;DHT22;50827;47.014;7.652;2023-12-29T01:38:43;6.30;99.90
3752;DHT22;50827;47.014;7.652;2023-12-29T01:41:10;6.20;99.90
3752;DHT22;50827;47.014;7.652;2023-12-29T01:46:31;6.30;99.90
3752;DHT22;50827;47.014;7.652;2023-12-29T01:49:00;6.20;99.90
3752;DHT22;50827;47.014;7.652;2023-12-29T01:51:27;6.30;99.90
3752;DHT22;50827;47.014;7.652;2023-12-29T01:53:57;6.20;99.90
3752;DHT22;50827;47.014;7.652;2023-12-29T01:56:25;6.10;99.90
3752;DHT22;50827;47.014;7.652;2023-12-29T01:58:55;6.10;99.90
3752;DHT22;50827;47.014;7.652;2023-12-29T02:01:33;6.10;99.90
3752;DHT22;50827;47.014;7.652;2023-12-29T02:04:01;6.20;99.90
3752;DHT22;50827;47.014;7.652;2023-12-29T02:06:28;6.10;99.90
3752;DHT22;50827;47.014;7.652;2023-12-29T02:08:56;6.20;99.90
3752;DHT22;50827;47.014;7.652;2023-12-29T02:11:24;6.20;99.90
3752;DHT22;50827;47.014;7.652;2023-12-29T02:13:52;6.30;99.90
3752;DHT22;50827;47.014;7.652;2023-12-29T02:16:25;6.20;99.90
3752;DHT22;50827;47.014;7.652;2023-12-29T02:18:55;6.30;99.90
3752;DHT22;50827;47.014;7.652;2023-12-29T02:21:25;6.20;99.90
3752;DHT22;50827;47.014;7.652;2023-12-29T02:23:52;6.20;99.90
3752;DHT22;50827;47.014;7.652;2023-12-29T02:26:20;6.20;99.90
3752;DHT22;50827;47.014;7.652;2023-12-29T02:28:57;6.30;99.90
3752;DHT22;50827;47.014;7.652;2023-12-29T02:31:27;6.20;99.90
3752;DHT22;50827;47.014;7.652;2023-12-29T02:33:56;6.20;99.90
3752;DHT22;50827;47.014;7.652;2023-12-29T02:36:24;6.20;99.90
3752;DHT22;50827;47.014;7.652;2023-12-29T02:38:51;6.20;99.90
3752;DHT22;50827;47.014;7.652;2023-12-29T02:41:18;6.20;99.90
3752;DHT22;50827;47.014;7.652;2023-12-29T02:43:45;6.20;99.90
3752;DHT22;50827;47.014;7.652;2023-12-29T02:46:12;6.20;99.90
3752;DHT22;50827;47.014;7.652;2023-12-29T02:48:39;6.20;99.90
3752;DHT22;50827;47.014;7.652;2023-12-29T02:51:06;6.20;99.90
3752;DHT22;50827;47.014;7.652;2023-12-29T02:53:34;6.30;99.90
3752;DHT22;50827;47.014;7.652;2023-12-29T02:56:01;6.20;99.90
3752;DHT22;50827;47.014;7.652;2023-12-29T02:58:29;6.30;99.90
3752;DHT22;50827;47.014;7.652;2023-12-29T03:00:57;6.30;99.90
3752;DHT22;50827;47.014;7.652;2023-12-29T03:03:24;6.30;99.90
3752;DHT22;50827;47.014;7.652;2023-12-29T03:05:52;6.30;99.90
3752;DHT22;50827;47.014;7.652;2023-12-29T03:08:19;6.20;99.90
3752;DHT22;50827;47.014;7.652;2023-12-29T03:10:46;6.20;99.90
3752;DHT22;50827;47.014;7.652;2023-12-29T03:13:12;6.20;99.90
3752;DHT22;50827;47.014;7.652;2023-12-29T03:15:39;6.20;99.90
3752;DHT22;50827;47.014;7.652;2023-12-29T03:18:06;6.10;99.90
3752;DHT22;50827;47.014;7.652;2023-12-29T03:20:33;6.20;99.90
3752;DHT22;50827;47.014;7.652;2023-12-29T03:23:00;6.20;99.90
3752;DHT22;50827;47.014;7.652;2023-12-29T03:25:26;6.20;99.90
3752;DHT22;50827;47.014;7.652;2023-12-29T03:27:53;6.30;99.90
3752;DHT22;50827;47.014;7.652;2023-12-29T03:30:20;6.30;99.90
3752;DHT22;50827;47.014;7.652;2023-12-29T03:32:47;6.30;99.90
3752;DHT22;50827;47.014;7.652;2023-12-29T03:35:14;6.30;99.90
3752;DHT22;50827;47.014;7.652;2023-12-29T03:37:43;6.30;99.90
3752;DHT22;50827;47.014;7.652;2023-12-29T03:40:09;6.30;99.90
3752;DHT22;50827;47.014;7.652;2023-12-29T03:42:36;6.30;99.90
3752;DHT22;50827;47.014;7.652;2023-12-29T03:45:03;6.30;99.90
3752;DHT22;50827;47.014;7.652;2023-12-29T03:47:30;6.30;99.90
3752;DHT22;50827;47.014;7.652;2023-12-29T03:49:58;6.30;99.90
3752;DHT22;50827;47.014;7.652;2023-12-29T03:52:25;6.40;99.90
3752;DHT22;50827;47.014;7.652;2023-12-29T03:54:51;6.30;99.90
3752;DHT22;50827;47.014;7.652;2023-12-29T03:57:18;6.30;99.90
3752;DHT22;50827;47.014;7.652;2023-12-29T03:59:45;6.30;99.90
3752;DHT22;50827;47.014;7.652;2023-12-29T04:02:11;6.30;99.90
3752;DHT22;50827;47.014;7.652;2023-12-29T04:04:38;6.30;99.90
3752;DHT22;50827;47.014;7.652;2023-12-29T04:07:05;6.20;99.90
3752;DHT22;50827;47.014;7.652;2023-12-29T04:09:32;6.30;99.90
3752;DHT22;50827;47.014;7.652;2023-12-29T04:11:59;6.40;99.90
3752;DHT22;50827;47.014;7.652;2023-12-29T04:14:26;6.40;99.90
3752;DHT22;50827;47.014;7.652;2023-12-29T04:16:53;6.40;99.90
3752;DHT22;50827;47.014;7.652;2023-12-29T04:19:19;6.30;99.90
3752;DHT22;50827;47.014;7.652;2023-12-29T04:21:46;6.30;99.90
3752;DHT22;50827;47.014;7.652;2023-12-29T04:24:13;6.30;99.90
3752;DHT22;50827;47.014;7.652;2023-12-29T04:26:40;6.40;99.90
3752;DHT22;50827;47.014;7.652;2023-12-29T04:29:08;6.40;99.90
3752;DHT22;50827;47.014;7.652;2023-12-29T04:31:35;6.40;99.90
3752;DHT22;50827;47.014;7.652;2023-12-29T04:34:01;6.50;99.90
3752;DHT22;50827;47.014;7.652;2023-12-29T04:36:28;6.50;99.90
3752;DHT22;50827;47.014;7.652;2023-12-29T04:38:55;6.50;99.90
3752;DHT22;50827;47.014;7.652;2023-12-29T04:41:22;6.60;99.90
3752;DHT22;50827;47.014;7.652;2023-12-29T04:43:49;6.60;99.90
3752;DHT22;50827;47.014;7.652;2023-12-29T04:46:17;6.60;99.90
3752;DHT22;50827;47.014;7.652;2023-12-29T04:48:43;6.60;99.90
3752;DHT22;50827;47.014;7.652;2023-12-29T04:51:11;6.70;99.90
3752;DHT22;50827;47.014;7.652;2023-12-29T04:53:38;6.70;99.90
3752;DHT22;50827;47.014;7.652;2023-12-29T04:56:05;6.70;99.90
3752;DHT22;50827;47.014;7.652;2023-12-29T04:58:32;6.70;99.90
3752;DHT22;50827;47.014;7.652;2023-12-29T05:00:59;6.70;99.90
3752;DHT22;50827;47.014;7.652;2023-12-29T05:03:27;6.70;99.90
3752;DHT22;50827;47.014;7.652;2023-12-29T05:05:54;6.80;99.90
3752;DHT22;50827;47.014;7.652;2023-12-29T05:08:21;6.80;99.90
3752;DHT22;50827;47.014;7.652;2023-12-29T05:10:48;6.90;99.90
3752;DHT22;50827;47.014;7.652;2023-12-29T05:13:14;6.90;99.90
3752;DHT22;50827;47.014;7.652;2023-12-29T05:15:41;7.00;99.90
3752;DHT22;50827;47.014;7.652;2023-12-29T05:18:08;7.00;99.90
3752;DHT22;50827;47.014;7.652;2023-12-29T05:20:36;7.10;99.90
3752;DHT22;50827;47.014;7.652;2023-12-29T05:23:03;7.10;99.90
3752;DHT22;50827;47.014;7.652;2023-12-29T05:25:30;7.10;99.90
3752;DHT22;50827;47.014;7.652;2023-12-29T05:27:57;7.20;99.90
3752;DHT22;50827;47.014;7.652;2023-12-29T05:30:24;7.20;99.90
3752;DHT22;50827;47.014;7.652;2023-12-29T05:32:53;7.20;99.90
3752;DHT22;50827;47.014;7.652;2023-12-29T05:35:20;7.30;99.90
3752;DHT22;50827;47.014;7.652;2023-12-29T05:37:47;7.20;99.90
3752;DHT22;50827;47.014;7.652;2023-12-29T05:40:14;7.20;99.90
3752;DHT22;50827;47.014;7.652;2023-12-29T05:42:40;7.30;99.90
3752;DHT22;50827;47.014;7.652;2023-12-29T05:45:08;7.30;99.90
3752;DHT22;50827;47.014;7.652;2023-12-29T05:47:34;7.30;99.90
3752;DHT22;50827;47.014;7.652;2023-12-29T05:50:01;7.40;99.90
3752;DHT22;50827;47.014;7.652;2023-12-29T05:52:28;7.40;99.90
3752;DHT22;50827;47.014;7.652;2023-12-29T05:54:55;7.40;99.90
3752;DHT22;50827;47.014;7.652;2023-12-29T05:57:22;7.30;99.90
3752;DHT22;50827;47.014;7.652;2023-12-29T05:59:48;7.30;99.90
3752;DHT22;50827;47.014;7.652;2023-12-29T06:02:15;7.30;99.90
3752;DHT22;50827;47.014;7.652;2023-12-29T06:04:42;7.40;99.90
3752;DHT22;50827;47.014;7.652;2023-12-29T06:07:08;7.30;99.90
3752;DHT22;50827;47.014;7.652;2023-12-29T06:09:36;7.30;99.90
3752;DHT22;50827;47.014;7.652;2023-12-29T06:12:03;7.30;99.90
3752;DHT22;50827;47.014;7.652;2023-12-29T06:14:30;7.30;99.90
3752;DHT22;50827;47.014;7.652;2023-12-29T06:16:56;7.40;99.90
3752;DHT22;50827;47.014;7.652;2023-12-29T06:19:23;7.40;99.90
3752;DHT22;50827;47.014;7.652;2023-12-29T06:21:50;7.50;99.90
3752;DHT22;50827;47.014;7.652;2023-12-29T06:24:16;7.50;99.90
3752;DHT22;50827;47.014;7.652;2023-12-29T06:26:43;7.60;99.90
3752;DHT22;50827;47.014;7.652;2023-12-29T06:29:11;7.70;99.90
3752;DHT22;50827;47.014;7.652;2023-12-29T06:31:41;7.70;99.90
3752;DHT22;50827;47.014;7.652;2023-12-29T06:34:09;7.70;99.90
3752;DHT22;50827;47.014;7.652;2023-12-29T06:36:36;7.80;99.90
3752;DHT22;50827;47.014;7.652;2023-12-29T06:39:02;7.80;99.90
3752;DHT22;50827;47.014;7.652;2023-12-29T06:41:29;7.80;99.90
3752;DHT22;50827;47.014;7.652;2023-12-29T06:43:56;7.90;99.90
3752;DHT22;50827;47.014;7.652;2023-12-29T06:46:23;7.90;99.90
3752;DHT22;50827;47.014;7.652;2023-12-29T06:48:50;8.00;99.90
3752;DHT22;50827;47.014;7.652;2023-12-29T06:51:17;8.10;99.90
3752;DHT22;50827;47.014;7.652;2023-12-29T06:53:46;8.10;99.90
3752;DHT22;50827;47.014;7.652;2023-12-29T06:56:17;8.10;99.90
3752;DHT22;50827;47.014;7.652;2023-12-29T06:58:44;8.20;99.90
3752;DHT22;50827;47.014;7.652;2023-12-29T07:01:12;8.20;99.90
3752;DHT22;50827;47.014;7.652;2023-12-29T07:03:39;8.20;99.90
3752;DHT22;50827;47.014;7.652;2023-12-29T07:06:06;8.20;99.90
3752;DHT22;50827;47.014;7.652;2023-12-29T07:08:33;8.30;99.90
3752;DHT22;50827;47.014;7.652;2023-12-29T07:11:00;8.30;99.90
3752;DHT22;50827;47.014;7.652;2023-12-29T07:13:27;8.30;99.90
3752;DHT22;50827;47.014;7.652;2023-12-29T07:15:54;8.30;99.90
3752;DHT22;50827;47.014;7.652;2023-12-29T07:18:21;8.30;99.90
3752;DHT22;50827;47.014;7.652;2023-12-29T07:20:48;8.30;99.90
3752;DHT22;50827;47.014;7.652;2023-12-29T07:23:14;8.30;99.90
3752;DHT22;50827;47.014;7.652;2023-12-29T07:25:41;8.30;99.90
3752;DHT22;50827;47.014;7.652;2023-12-29T07:28:08;8.30;99.90
3752;DHT22;50827;47.014;7.652;2023-12-29T07:30:35;8.30;99.90
3752;DHT22;50827;47.014;7.652;2023-12-29T07:33:02;8.40;99.90
3752;DHT22;50827;47.014;7.652;2023-12-29T07:35:29;8.40;99.90
3752;DHT22;50827;47.014;7.652;2023-12-29T07:37:56;8.40;99.90
3752;DHT22;50827;47.014;7.652;2023-12-29T07:40:23;8.40;99.90
3752;DHT22;50827;47.014;7.652;2023-12-29T07:42:50;8.40;99.90
3752;DHT22;50827;47.014;7.652;2023-12-29T07:45:17;8.30;99.90
3752;DHT22;50827;47.014;7.652;2023-12-29T07:47:44;8.40;99.90
3752;DHT22;50827;47.014;7.652;2023-12-29T07:50:11;8.30;99.90
3752;DHT22;50827;47.014;7.652;2023-12-29T07:52:38;8.30;99.90
3752;DHT22;50827;47.014;7.652;2023-12-29T07:55:05;8.30;99.90
3752;DHT22;50827;47.014;7.652;2023-12-29T07:57:31;8.40;99.90
3752;DHT22;50827;47.014;7.652;2023-12-29T07:59:58;8.30;99.90
3752;DHT22;50827;47.014;7.652;2023-12-29T08:02:25;8.30;99.90
3752;DHT22;50827;47.014;7.652;2023-12-29T08:04:51;8.30;99.90
3752;DHT22;50827;47.014;7.652;2023-12-29T08:07:18;8.40;99.90
3752;DHT22;50827;47.014;7.652;2023-12-29T08:09:45;8.40;99.90
3752;DHT22;50827;47.014;7.652;2023-12-29T08:12:12;8.30;99.90
3752;DHT22;50827;47.014;7.652;2023-12-29T08:14:40;8.30;99.90
3752;DHT22;50827;47.014;7.652;2023-12-29T08:17:07;8.30;99.90
3752;DHT22;50827;47.014;7.652;2023-12-29T08:19:34;8.40;99.90
3752;DHT22;50827;47.014;7.652;2023-12-29T08:22:01;8.30;99.90
3752;DHT22;50827;47.014;7.652;2023-12-29T08:24:27;8.30;99.90
3752;DHT22;50827;47.014;7.652;2023-12-29T08:26:54;8.30;99.90
3752;DHT22;50827;47.014;7.652;2023-12-29T08:29:21;8.30;99.90
3752;DHT22;50827;47.014;7.652;2023-12-29T08:31:48;8.30;99.90
3752;DHT22;50827;47.014;7.652;2023-12-29T08:34:14;8.30;99.90
3752;DHT22;50827;47.014;7.652;2023-12-29T08:36:42;8.20;99.90
3752;DHT22;50827;47.014;7.652;2023-12-29T08:39:09;8.20;99.90
3752;DHT22;50827;47.014;7.652;2023-12-29T08:41:36;8.10;99.90
3752;DHT22;50827;47.014;7.652;2023-12-29T08:44:02;8.10;99.90
3752;DHT22;50827;47.014;7.652;2023-12-29T08:46:30;8.10;99.90
3752;DHT22;50827;47.014;7.652;2023-12-29T08:48:57;8.10;99.90
3752;DHT22;50827;47.014;7.652;2023-12-29T08:51:23;8.10;99.90
3752;DHT22;50827;47.014;7.652;2023-12-29T08:53:50;8.10;99.90
3752;DHT22;50827;47.014;7.652;2023-12-29T08:56:17;8.10;99.90
3752;DHT22;50827;47.014;7.652;2023-12-29T08:58:44;8.10;99.90
3752;DHT22;50827;47.014;7.652;2023-12-29T09:01:11;8.10;99.90
3752;DHT22;50827;47.014;7.652;2023-12-29T09:03:38;8.20;99.90
3752;DHT22;50827;47.014;7.652;2023-12-29T09:06:05;8.20;99.90
3752;DHT22;50827;47.014;7.652;2023-12-29T09:08:32;8.20;99.90
3752;DHT22;50827;47.014;7.652;2023-12-29T09:10:59;8.30;99.90
3752;DHT22;50827;47.014;7.652;2023-12-29T09:13:25;8.30;99.90
3752;DHT22;50827;47.014;7.652;2023-12-29T09:15:54;8.30;99.90
3752;DHT22;50827;47.014;7.652;2023-12-29T09:18:21;8.30;99.90
3752;DHT22;50827;47.014;7.652;2023-12-29T09:20:48;8.30;99.90
3752;DHT22;50827;47.014;7.652;2023-12-29T09:23:15;8.40;99.90
3752;DHT22;50827;47.014;7.652;2023-12-29T09:25:42;8.40;99.90
3752;DHT22;50827;47.014;7.652;2023-12-29T09:28:08;8.40;99.90
3752;DHT22;50827;47.014;7.652;2023-12-29T09:30:36;8.50;99.90
3752;DHT22;50827;47.014;7.652;2023-12-29T09:33:03;8.50;99.90
3752;DHT22;50827;47.014;7.652;2023-12-29T09:35:30;8.40;99.90
3752;DHT22;50827;47.014;7.652;2023-12-29T09:37:59;8.50;99.90
3752;DHT22;50827;47.014;7.652;2023-12-29T09:40:26;8.60;99.90
3752;DHT22;50827;47.014;7.652;2023-12-29T09:42:53;8.50;99.90
3752;DHT22;50827;47.014;7.652;2023-12-29T09:45:23;8.50;99.90
3752;DHT22;50827;47.014;7.652;2023-12-29T09:47:54;8.50;99.90
3752;DHT22;50827;47.014;7.652;2023-12-29T09:50:24;8.60;99.90
3752;DHT22;50827;47.014;7.652;2023-12-29T09:52:53;8.60;99.90
3752;DHT22;50827;47.014;7.652;2023-12-29T09:55:20;8.70;99.90
3752;DHT22;50827;47.014;7.652;2023-12-29T09:57:48;8.70;99.90
3752;DHT22;50827;47.014;7.652;2023-12-29T10:00:16;8.70;99.90
3752;DHT22;50827;47.014;7.652;2023-12-29T10:02:44;8.70;99.90
3752;DHT22;50827;47.014;7.652;2023-12-29T10:05:11;8.70;99.90
3752;DHT22;50827;47.014;7.652;2023-12-29T10:07:42;8.80;99.90
3752;DHT22;50827;47.014;7.652;2023-12-29T10:10:14;8.80;99.90
3752;DHT22;50827;47.014;7.652;2023-12-29T10:12:43;8.90;99.90
3752;DHT22;50827;47.014;7.652;2023-12-29T10:15:14;8.90;99.90
3752;DHT22;50827;47.014;7.652;2023-12-29T10:20:52;8.90;99.90
3752;DHT22;50827;47.014;7.652;2023-12-29T10:23:32;9.00;99.90
3752;DHT22;50827;47.014;7.652;2023-12-29T10:26:03;9.00;99.90
3752;DHT22;50827;47.014;7.652;2023-12-29T10:28:30;9.00;99.90
3752;DHT22;50827;47.014;7.652;2023-12-29T10:30:57;9.00;99.90
3752;DHT22;50827;47.014;7.652;2023-12-29T10:33:24;9.00;99.90
3752;DHT22;50827;47.014;7.652;2023-12-29T10:36:02;9.10;99.90
3752;DHT22;50827;47.014;7.652;2023-12-29T10:38:30;9.10;99.90
3752;DHT22;50827;47.014;7.652;2023-12-29T10:41:14;9.20;99.90
3752;DHT22;50827;47.014;7.652;2023-12-29T10:43:42;9.20;99.90
3752;DHT22;50827;47.014;7.652;2023-12-29T10:46:10;9.30;99.90
3752;DHT22;50827;47.014;7.652;2023-12-29T10:48:38;9.30;99.90
3752;DHT22;50827;47.014;7.652;2023-12-29T10:51:06;9.30;99.90
3752;DHT22;50827;47.014;7.652;2023-12-29T10:53:34;9.30;99.90
3752;DHT22;50827;47.014;7.652;2023-12-29T10:56:17;9.40;99.90
3752;DHT22;50827;47.014;7.652;2023-12-29T10:59:00;9.40;99.90
3752;DHT22;50827;47.014;7.652;2023-12-29T11:01:27;9.50;99.90
3752;DHT22;50827;47.014;7.652;2023-12-29T11:04:04;9.50;99.90
3752;DHT22;50827;47.014;7.652;2023-12-29T11:06:42;9.60;99.90
3752;DHT22;50827;47.014;7.652;2023-12-29T11:09:11;9.60;99.90
3752;DHT22;50827;47.014;7.652;2023-12-29T11:11:38;9.60;99.90
3752;DHT22;50827;47.014;7.652;2023-12-29T11:14:05;9.70;99.90
3752;DHT22;50827;47.014;7.652;2023-12-29T11:16:32;9.70;99.90
3752;DHT22;50827;47.014;7.652;2023-12-29T11:18:59;9.80;99.90
3752;DHT22;50827;47.014;7.652;2023-12-29T11:21:27;9.80;99.90
3752;DHT22;50827;47.014;7.652;2023-12-29T11:23:54;9.80;99.90
3752;DHT22;50827;47.014;7.652;2023-12-29T11:26:21;9.80;99.90
3752;DHT22;50827;47.014;7.652;2023-12-29T11:28:49;9.80;99.90
3752;DHT22;50827;47.014;7.652;2023-12-29T11:31:19;9.90;99.90
3752;DHT22;50827;47.014;7.652;2023-12-29T11:33:52;9.90;99.90
3752;DHT22;50827;47.014;7.652;2023-12-29T11:36:27;9.90;99.90
3752;DHT22;50827;47.014;7.652;2023-12-29T11:39:06;9.80;99.90
3752;DHT22;50827;47.014;7.652;2023-12-29T11:42:00;9.80;99.90
3752;DHT22;50827;47.014;7.652;2023-12-29T11:44:28;9.90;99.90
3752;DHT22;50827;47.014;7.652;2023-12-29T11:46:57;9.80;99.90
3752;DHT22;50827;47.014;7.652;2023-12-29T11:49:26;9.90;99.90
3752;DHT22;50827;47.014;7.652;2023-12-29T11:51:53;9.90;99.90
3752;DHT22;50827;47.014;7.652;2023-12-29T11:54:25;9.90;99.90
3752;DHT22;50827;47.014;7.652;2023-12-29T11:56:55;9.90;99.90
3752;DHT22;50827;47.014;7.652;2023-12-29T11:59:23;10.00;99.90
3752;DHT22;50827;47.014;7.652;2023-12-29T12:01:52;9.90;99.90
3752;DHT22;50827;47.014;7.652;2023-12-29T12:04:39;10.00;99.90
3752;DHT22;50827;47.014;7.652;2023-12-29T12:09:39;10.10;99.90
3752;DHT22;50827;47.014;7.652;2023-12-29T12:12:06;10.10;99.90
3752;DHT22;50827;47.014;7.652;2023-12-29T12:14:47;10.10;99.90
3752;DHT22;50827;47.014;7.652;2023-12-29T12:17:32;10.10;99.90
3752;DHT22;50827;47.014;7.652;2023-12-29T12:20:03;10.10;99.90
3752;DHT22;50827;47.014;7.652;2023-12-29T12:22:31;10.10;99.90
3752;DHT22;50827;47.014;7.652;2023-12-29T12:25:05;10.10;99.90
3752;DHT22;50827;47.014;7.652;2023-12-29T12:27:34;10.10;99.90
3752;DHT22;50827;47.014;7.652;2023-12-29T12:30:04;10.20;99.90
3752;DHT22;50827;47.014;7.652;2023-12-29T12:32:33;10.20;99.90
3752;DHT22;50827;47.014;7.652;2023-12-29T12:35:01;10.30;99.90
3752;DHT22;50827;47.014;7.652;2023-12-29T12:37:29;10.30;99.90
3752;DHT22;50827;47.014;7.652;2023-12-29T12:39:58;10.40;99.90
3752;DHT22;50827;47.014;7.652;2023-12-29T12:42:26;10.40;99.90
3752;DHT22;50827;47.014;7.652;2023-12-29T12:45:04;10.40;99.90
3752;DHT22;50827;47.014;7.652;2023-12-29T12:47:54;10.40;99.90
3752;DHT22;50827;47.014;7.652;2023-12-29T12:50:21;10.40;99.90
3752;DHT22;50827;47.014;7.652;2023-12-29T12:52:48;10.50;99.90
3752;DHT22;50827;47.014;7.652;2023-12-29T12:55:15;10.40;99.90
3752;DHT22;50827;47.014;7.652;2023-12-29T12:57:43;10.40;99.90
3752;DHT22;50827;47.014;7.652;2023-12-29T13:00:10;10.50;99.90
3752;DHT22;50827;47.014;7.652;2023-12-29T13:02:37;10.50;99.90
3752;DHT22;50827;47.014;7.652;2023-12-29T13:05:04;10.60;99.90
3752;DHT22;50827;47.014;7.652;2023-12-29T13:07:34;10.60;99.90
3752;DHT22;50827;47.014;7.652;2023-12-29T13:10:02;10.60;99.90
3752;DHT22;50827;47.014;7.652;2023-12-29T13:12:30;10.70;99.90
3752;DHT22;50827;47.014;7.652;2023-12-29T13:15:07;10.70;99.90
3752;DHT22;50827;47.014;7.652;2023-12-29T13:17:37;10.70;99.90
3752;DHT22;50827;47.014;7.652;2023-12-29T13:20:04;10.70;99.90
3752;DHT22;50827;47.014;7.652;2023-12-29T13:22:33;10.70;99.90
3752;DHT22;50827;47.014;7.652;2023-12-29T13:25:00;10.80;99.90
3752;DHT22;50827;47.014;7.652;2023-12-29T13:27:27;10.80;99.90
3752;DHT22;50827;47.014;7.652;2023-12-29T13:29:54;10.80;99.90
3752;DHT22;50827;47.014;7.652;2023-12-29T13:32:24;10.80;99.90
3752;DHT22;50827;47.014;7.652;2023-12-29T13:35:25;10.80;99.90
3752;DHT22;50827;47.014;7.652;2023-12-29T13:38:18;10.90;99.90
3752;DHT22;50827;47.014;7.652;2023-12-29T13:43:14;11.00;99.90
3752;DHT22;50827;47.014;7.652;2023-12-29T13:45:42;11.00;99.90
3752;DHT22;50827;47.014;7.652;2023-12-29T13:48:11;11.00;99.90
3752;DHT22;50827;47.014;7.652;2023-12-29T13:50:45;11.00;99.90
3752;DHT22;50827;47.014;7.652;2023-12-29T13:53:20;11.00;99.90
3752;DHT22;50827;47.014;7.652;2023-12-29T13:55:49;11.00;99.90
3752;DHT22;50827;47.014;7.652;2023-12-29T13:58:16;11.10;99.90
3752;DHT22;50827;47.014;7.652;2023-12-29T14:00:46;11.10;99.90
3752;DHT22;50827;47.014;7.652;2023-12-29T14:03:23;11.10;99.90
3752;DHT22;50827;47.014;7.652;2023-12-29T14:06:07;11.10;99.90
3752;DHT22;50827;47.014;7.652;2023-12-29T14:08:45;11.20;99.90
3752;DHT22;50827;47.014;7.652;2023-12-29T14:11:12;11.20;99.90
3752;DHT22;50827;47.014;7.652;2023-12-29T14:13:43;11.20;99.90
3752;DHT22;50827;47.014;7.652;2023-12-29T14:16:14;11.20;99.90
3752;DHT22;50827;47.014;7.652;2023-12-29T14:18:54;11.20;99.90
3752;DHT22;50827;47.014;7.652;2023-12-29T14:21:22;11.20;99.90
3752;DHT22;50827;47.014;7.652;2023-12-29T14:24:19;11.20;99.90
3752;DHT22;50827;47.014;7.652;2023-12-29T14:29:21;11.10;99.90
3752;DHT22;50827;47.014;7.652;2023-12-29T14:31:48;11.10;99.90
3752;DHT22;50827;47.014;7.652;2023-12-29T14:34:17;11.10;99.90
3752;DHT22;50827;47.014;7.652;2023-12-29T14:36:45;11.10;99.90
3752;DHT22;50827;47.014;7.652;2023-12-29T14:39:12;11.00;99.90
3752;DHT22;50827;47.014;7.652;2023-12-29T14:41:39;11.00;99.90
3752;DHT22;50827;47.014;7.652;2023-12-29T14:44:06;11.00;99.90
3752;DHT22;50827;47.014;7.652;2023-12-29T14:46:33;10.90;99.90
3752;DHT22;50827;47.014;7.652;2023-12-29T14:49:01;10.90;99.90
3752;DHT22;50827;47.014;7.652;2023-12-29T14:51:28;10.90;99.90
3752;DHT22;50827;47.014;7.652;2023-12-29T14:53:54;10.90;99.90
3752;DHT22;50827;47.014;7.652;2023-12-29T14:56:22;10.80;99.90
3752;DHT22;50827;47.014;7.652;2023-12-29T14:58:49;10.90;99.90
3752;DHT22;50827;47.014;7.652;2023-12-29T15:01:17;10.80;99.90
3752;DHT22;50827;47.014;7.652;2023-12-29T15:03:44;10.80;99.90
3752;DHT22;50827;47.014;7.652;2023-12-29T15:06:11;10.80;99.90
3752;DHT22;50827;47.014;7.652;2023-12-29T15:08:38;10.80;99.90
3752;DHT22;50827;47.014;7.652;2023-12-29T15:11:05;10.80;99.90
3752;DHT22;50827;47.014;7.652;2023-12-29T15:13:33;10.80;99.90
3752;DHT22;50827;47.014;7.652;2023-12-29T15:16:01;10.80;99.90
3752;DHT22;50827;47.014;7.652;2023-12-29T15:18:28;10.80;99.90
3752;DHT22;50827;47.014;7.652;2023-12-29T15:20:58;10.70;99.90
3752;DHT22;50827;47.014;7.652;2023-12-29T15:23:26;10.70;99.90
3752;DHT22;50827;47.014;7.652;2023-12-29T15:25:54;10.80;99.90
3752;DHT22;50827;47.014;7.652;2023-12-29T15:28:21;10.70;99.90
3752;DHT22;50827;47.014;7.652;2023-12-29T15:30:49;10.70;99.90
3752;DHT22;50827;47.014;7.652;2023-12-29T15:33:17;10.70;99.90
3752;DHT22;50827;47.014;7.652;2023-12-29T15:35:44;10.70;99.90
3752;DHT22;50827;47.014;7.652;2023-12-29T15:38:11;10.70;99.90
3752;DHT22;50827;47.014;7.652;2023-12-29T15:40:37;10.70;99.90
3752;DHT22;50827;47.014;7.652;2023-12-29T15:43:04;10.70;99.90
3752;DHT22;50827;47.014;7.652;2023-12-29T15:45:31;10.60;99.90
3752;DHT22;50827;47.014;7.652;2023-12-29T15:47:58;10.70;99.90
3752;DHT22;50827;47.014;7.652;2023-12-29T15:50:26;10.80;99.90
3752;DHT22;50827;47.014;7.652;2023-12-29T15:52:53;11.00;99.90
3752;DHT22;50827;47.014;7.652;2023-12-29T15:55:20;10.90;99.90
3752;DHT22;50827;47.014;7.652;2023-12-29T15:57:47;10.90;99.90
3752;DHT22;50827;47.014;7.652;2023-12-29T16:00:14;10.80;99.90
3752;DHT22;50827;47.014;7.652;2023-12-29T16:02:41;10.80;99.90
3752;DHT22;50827;47.014;7.652;2023-12-29T16:05:07;10.80;99.90
3752;DHT22;50827;47.014;7.652;2023-12-29T16:07:34;10.80;99.90
3752;DHT22;50827;47.014;7.652;2023-12-29T16:10:02;10.70;99.90
3752;DHT22;50827;47.014;7.652;2023-12-29T16:12:30;10.70;99.90
3752;DHT22;50827;47.014;7.652;2023-12-29T16:14:57;10.70;99.90
3752;DHT22;50827;47.014;7.652;2023-12-29T16:17:24;10.70;99.90